createdAt,value
2018-04-28T00:02:15.303Z,10.13
2018-04-28T00:04:43.062Z,9.18
2018-04-28T00:07:10.791Z,8.35
2018-04-28T00:09:38.583Z,9.10
2018-04-28T00:12:06.312Z,9.15
2018-04-28T00:14:34.043Z,8.63
2018-04-28T00:17:09.456Z,7.80
2018-04-28T00:19:37.216Z,9.07
2018-04-28T00:22:10.583Z,10.40
2018-04-28T00:24:39.236Z,12.57
2018-04-28T00:27:12.589Z,8.80
2018-04-28T00:29:42.669Z,9.00
2018-04-28T00:32:10.478Z,10.90
2018-04-28T00:34:58.177Z,8.52
2018-04-28T00:37:27.881Z,12.57
2018-04-28T00:39:57.480Z,9.73
2018-04-28T00:55:50.120Z,11.57
2018-04-28T00:58:34.529Z,12.15
2018-04-28T01:01:04.242Z,12.80
2018-04-28T01:16:59.011Z,13.30
2018-04-28T01:19:37.417Z,10.80
2018-04-28T01:22:06.600Z,12.05
2018-04-28T01:24:40.251Z,11.98
2018-04-28T01:27:13.947Z,12.52
2018-04-28T01:29:53.533Z,10.45
2018-04-28T01:32:22.089Z,12.25
2018-04-28T01:34:50.590Z,13.05
2018-04-28T01:37:41.173Z,17.55
2018-04-28T01:40:12.432Z,14.07
2018-04-28T01:42:47.147Z,12.70
2018-04-28T01:45:20.799Z,18.33
2018-04-28T01:48:01.214Z,19.33
2018-04-28T01:50:44.737Z,15.20
2018-04-28T01:53:12.528Z,13.52
2018-04-28T01:56:00.178Z,13.38
2018-04-28T01:58:28.924Z,13.93
2018-04-28T02:01:01.363Z,16.10
2018-04-28T02:03:51.852Z,17.10
2018-04-28T02:19:46.492Z,16.50
2018-04-28T02:22:22.760Z,20.37
2018-04-28T02:25:01.527Z,15.68
2018-04-28T02:27:42.868Z,17.80
2018-04-28T02:30:11.449Z,13.18
2018-04-28T02:32:40.873Z,15.70
2018-04-28T02:35:20.571Z,14.05
2018-04-28T02:37:49.185Z,19.58
2018-04-28T02:40:42.522Z,15.52
2018-04-28T02:43:12.797Z,19.12
2018-04-28T02:45:41.353Z,15.73
2018-04-28T03:01:59.143Z,18.15
2018-04-28T03:04:32.332Z,19.90
2018-04-28T03:07:01.882Z,16.05
2018-04-28T03:09:29.661Z,15.82
2018-04-28T03:12:03.202Z,17.05
2018-04-28T03:14:31.737Z,18.25
2018-04-28T03:17:01.283Z,18.08
2018-04-28T03:19:33.672Z,18.62
2018-04-28T03:22:01.407Z,20.20
2018-04-28T03:27:46.008Z,17.08
2018-04-28T03:30:14.573Z,15.65
2018-04-28T03:32:53.029Z,15.75
2018-04-28T03:35:37.635Z,15.10
2018-04-28T03:38:08.138Z,16.12
2018-04-28T03:40:38.835Z,16.15
2018-04-28T03:43:17.316Z,19.83
2018-04-28T03:45:46.169Z,17.77
2018-04-28T03:48:17.352Z,17.25
2018-04-28T03:50:55.097Z,17.58
2018-04-28T03:53:27.243Z,17.02
2018-04-28T03:56:06.843Z,18.70
2018-04-28T03:58:47.305Z,18.73
2018-04-28T04:01:27.824Z,18.58
2018-04-28T04:04:01.392Z,21.55
2018-04-28T04:20:09.059Z,15.10
2018-04-28T04:36:40.068Z,14.00
2018-04-28T04:39:27.325Z,12.90
2018-04-28T04:42:05.267Z,11.85
2018-04-28T04:44:55.700Z,12.27
2018-04-28T04:47:30.068Z,14.30
2018-04-28T04:50:09.571Z,11.55
2018-04-28T04:52:52.196Z,14.90
2018-04-28T04:55:31.738Z,12.37
2018-04-28T05:11:47.700Z,12.18
2018-04-28T05:27:45.546Z,12.15
2018-04-28T05:30:24.982Z,11.48
2018-04-28T05:33:18.601Z,10.68
2018-04-28T05:35:52.280Z,9.68
2018-04-28T05:38:44.009Z,10.43
2018-04-28T05:41:24.033Z,10.98
2018-04-28T05:44:03.605Z,9.13
2018-04-28T05:46:33.948Z,8.93
2018-04-28T06:02:43.260Z,8.45
2018-04-28T06:05:30.474Z,10.18
2018-04-28T06:08:14.786Z,7.68
2018-04-28T06:11:04.184Z,7.93
2018-04-28T06:14:07.601Z,6.72
2018-04-28T06:16:53.691Z,8.90
2018-04-28T06:33:01.011Z,6.10
2018-04-28T06:35:29.541Z,5.40
2018-04-28T06:37:57.305Z,6.90
2018-04-28T06:40:26.075Z,11.03
2018-04-28T06:42:53.817Z,9.03
2018-04-28T06:45:21.547Z,7.27
2018-04-28T06:47:50.100Z,7.60
2018-04-28T06:50:17.851Z,6.67
2018-04-28T06:52:45.596Z,8.63
2018-04-28T06:55:13.425Z,9.90
2018-04-28T06:57:41.924Z,8.10
2018-04-28T07:00:09.681Z,6.83
2018-04-28T07:02:37.553Z,5.73
2018-04-28T07:05:05.364Z,10.17
2018-04-28T07:07:33.112Z,6.30
2018-04-28T07:10:00.918Z,5.87
2018-04-28T07:12:29.452Z,6.40
2018-04-28T07:14:57.369Z,6.80
2018-04-28T07:17:25.183Z,4.80
2018-04-28T07:19:52.921Z,5.43
2018-04-28T07:22:20.735Z,9.80
2018-04-28T07:24:49.445Z,7.03
2018-04-28T07:27:17.313Z,4.50
2018-04-28T07:29:45.114Z,5.60
2018-04-28T07:32:13.047Z,5.13
2018-04-28T07:34:40.786Z,6.00
2018-04-28T07:37:09.307Z,5.20
2018-04-28T07:39:37.266Z,5.67
2018-04-28T07:42:05.114Z,4.90
2018-04-28T07:44:32.915Z,8.57
2018-04-28T07:47:00.929Z,8.43
2018-04-28T07:49:28.798Z,6.37
2018-04-28T07:51:56.615Z,4.33
2018-04-28T07:54:25.453Z,4.93
2018-04-28T07:56:53.224Z,5.47
2018-04-28T07:59:20.943Z,4.90
2018-04-28T08:01:48.823Z,4.53
2018-04-28T08:04:17.317Z,5.33
2018-04-28T08:06:45.055Z,4.53
2018-04-28T08:09:13.607Z,6.00
2018-04-28T08:11:41.353Z,7.20
2018-04-28T08:14:09.099Z,7.00
2018-04-28T08:16:36.900Z,5.67
2018-04-28T08:19:04.682Z,4.17
2018-04-28T08:21:32.609Z,3.40
2018-04-28T08:24:00.465Z,5.60
2018-04-28T08:26:28.193Z,3.90
2018-04-28T08:28:56.938Z,4.30
2018-04-28T08:31:25.609Z,4.40
2018-04-28T08:33:53.470Z,10.80
2018-04-28T08:36:21.337Z,6.27
2018-04-28T08:38:49.225Z,6.77
2018-04-28T08:41:17.063Z,3.67
2018-04-28T08:43:44.838Z,5.80
2018-04-28T08:46:12.612Z,3.97
2018-04-28T08:48:40.383Z,7.57
2018-04-28T08:51:08.910Z,5.37
2018-04-28T08:53:36.720Z,7.43
2018-04-28T08:56:04.555Z,5.90
2018-04-28T08:58:32.422Z,3.97
2018-04-28T09:01:02.946Z,4.40
2018-04-28T09:03:30.814Z,4.47
2018-04-28T09:05:58.573Z,3.83
2018-04-28T09:08:26.435Z,6.50
2018-04-28T09:10:54.173Z,5.23
2018-04-28T09:13:21.881Z,3.90
2018-04-28T09:15:49.638Z,5.90
2018-04-28T09:18:17.343Z,4.60
2018-04-28T09:20:45.052Z,3.17
2018-04-28T09:23:12.825Z,15.47
2018-04-28T09:25:41.312Z,4.73
2018-04-28T09:28:09.816Z,6.20
2018-04-28T09:30:37.588Z,6.10
2018-04-28T09:33:05.328Z,3.93
2018-04-28T09:35:33.080Z,6.32
2018-04-28T09:38:01.632Z,6.53
2018-04-28T09:40:29.348Z,7.25
2018-04-28T09:42:57.080Z,5.82
2018-04-28T09:45:25.634Z,11.57
2018-04-28T09:47:53.496Z,5.55
2018-04-28T09:50:21.239Z,3.35
2018-04-28T09:52:49.014Z,5.43
2018-04-28T09:55:17.495Z,4.30
2018-04-28T09:57:57.137Z,5.45
2018-04-28T10:00:30.689Z,3.08
2018-04-28T10:02:58.496Z,3.95
2018-04-28T10:05:26.223Z,5.45
2018-04-28T10:07:53.948Z,3.03
2018-04-28T10:10:22.598Z,3.85
2018-04-28T10:12:50.538Z,4.10
2018-04-28T10:15:18.228Z,4.10
2018-04-28T10:17:46.088Z,2.95
2018-04-28T10:20:14.079Z,5.70
2018-04-28T10:22:42.493Z,4.85
2018-04-28T10:25:10.264Z,6.50
2018-04-28T10:27:37.989Z,5.03
2018-04-28T10:30:06.469Z,4.12
2018-04-28T10:32:35.020Z,3.50
2018-04-28T10:35:02.740Z,3.17
2018-04-28T10:37:30.467Z,5.20
2018-04-28T10:39:59.000Z,3.67
2018-04-28T10:42:26.722Z,3.65
2018-04-28T10:44:55.235Z,7.05
2018-04-28T10:47:23.823Z,6.07
2018-04-28T10:49:51.563Z,5.22
2018-04-28T10:52:19.365Z,5.18
2018-04-28T10:54:47.225Z,7.55
2018-04-28T10:57:14.955Z,4.55
2018-04-28T10:59:42.754Z,4.35
2018-04-28T11:02:10.549Z,3.50
2018-04-28T11:04:38.271Z,4.45
2018-04-28T11:07:06.034Z,2.60
2018-04-28T11:09:33.804Z,4.05
2018-04-28T11:12:01.537Z,3.97
2018-04-28T11:14:29.293Z,4.90
2018-04-28T11:16:57.071Z,4.68
2018-04-28T11:19:24.795Z,7.45
2018-04-28T11:21:52.558Z,3.60
2018-04-28T11:24:20.343Z,2.75
2018-04-28T11:26:48.129Z,5.00
2018-04-28T11:29:15.997Z,3.90
2018-04-28T11:31:43.782Z,5.20
2018-04-28T11:34:12.329Z,4.80
2018-04-28T11:36:40.055Z,4.95
2018-04-28T11:39:07.964Z,6.32
2018-04-28T11:41:35.896Z,4.55
2018-04-28T11:44:03.749Z,3.05
2018-04-28T11:46:31.553Z,5.43
2018-04-28T11:48:59.276Z,3.35
2018-04-28T11:51:27.086Z,8.82
2018-04-28T11:53:54.932Z,16.15
2018-04-28T11:56:22.907Z,7.82
2018-04-28T11:58:50.788Z,5.03
2018-04-28T12:01:19.350Z,3.90
2018-04-28T12:03:47.218Z,4.07
2018-04-28T12:06:15.086Z,5.28
2018-04-28T12:08:42.947Z,5.82
2018-04-28T12:11:10.754Z,4.93
2018-04-28T12:13:39.256Z,2.70
2018-04-28T12:16:07.024Z,3.70
2018-04-28T12:18:35.509Z,3.28
2018-04-28T12:21:03.262Z,2.83
2018-04-28T12:23:31.039Z,3.65
2018-04-28T12:25:58.917Z,3.75
2018-04-28T12:28:26.783Z,6.28
2018-04-28T12:30:54.555Z,4.60
2018-04-28T12:33:22.286Z,7.43
2018-04-28T12:35:50.015Z,3.72
2018-04-28T12:38:17.817Z,4.35
2018-04-28T12:40:45.540Z,5.75
2018-04-28T12:43:13.364Z,9.43
2018-04-28T12:45:41.219Z,2.92
2018-04-28T12:48:08.955Z,6.00
2018-04-28T12:50:36.758Z,5.28
2018-04-28T12:53:04.574Z,4.82
2018-04-28T12:55:32.291Z,5.75
2018-04-28T12:58:00.848Z,4.80
2018-04-28T13:00:28.642Z,4.28
2018-04-28T13:02:57.187Z,4.95
2018-04-28T13:05:24.898Z,5.25
2018-04-28T13:07:52.677Z,3.40
2018-04-28T13:10:20.473Z,4.55
2018-04-28T13:12:48.195Z,10.63
2018-04-28T13:15:15.972Z,2.60
2018-04-28T13:17:43.758Z,3.10
2018-04-28T13:20:11.723Z,3.47
2018-04-28T13:22:39.593Z,3.97
2018-04-28T13:25:07.313Z,3.58
2018-04-28T13:27:35.051Z,4.32
2018-04-28T13:30:03.672Z,3.70
2018-04-28T13:32:31.412Z,4.43
2018-04-28T13:34:59.223Z,3.00
2018-04-28T13:37:27.092Z,4.95
2018-04-28T13:39:54.914Z,4.35
2018-04-28T13:42:22.708Z,3.90
2018-04-28T13:44:50.486Z,2.67
2018-04-28T13:47:18.228Z,2.33
2018-04-28T13:49:45.952Z,3.25
2018-04-28T13:52:13.747Z,2.95
2018-04-28T13:54:41.491Z,4.15
2018-04-28T13:57:09.212Z,5.87
2018-04-28T13:59:37.002Z,4.40
2018-04-28T14:02:04.805Z,3.72
2018-04-28T14:04:33.382Z,2.75
2018-04-28T14:07:01.245Z,4.00
2018-04-28T14:09:29.118Z,3.75
2018-04-28T14:11:56.984Z,2.37
2018-04-28T14:14:24.846Z,2.92
2018-04-28T14:16:52.571Z,3.70
2018-04-28T14:19:20.318Z,9.13
2018-04-28T14:21:48.188Z,2.90
2018-04-28T14:24:15.921Z,4.20
2018-04-28T14:26:44.409Z,2.83
2018-04-28T14:29:13.053Z,2.78
2018-04-28T14:31:40.773Z,5.32
2018-04-28T14:34:08.542Z,4.40
2018-04-28T14:36:36.317Z,3.28
2018-04-28T14:39:04.302Z,5.03
2018-04-28T14:41:32.867Z,6.65
2018-04-28T14:44:01.404Z,5.57
2018-04-28T14:46:29.891Z,2.85
2018-04-28T14:48:58.667Z,6.90
2018-04-28T14:51:27.214Z,2.85
2018-04-28T14:53:54.940Z,4.10
2018-04-28T14:56:22.665Z,5.95
2018-04-28T14:58:51.223Z,5.18
2018-04-28T15:01:18.949Z,3.72
2018-04-28T15:03:46.688Z,3.45
2018-04-28T15:06:14.490Z,3.17
2018-04-28T15:08:42.220Z,5.70
2018-04-28T15:11:09.942Z,6.10
2018-04-28T15:13:38.475Z,3.40
2018-04-28T15:16:06.266Z,4.15
2018-04-28T15:18:33.975Z,7.50
2018-04-28T15:21:01.765Z,2.90
2018-04-28T15:23:29.515Z,3.95
2018-04-28T15:25:57.301Z,3.87
2018-04-28T15:28:25.250Z,4.45
2018-04-28T15:30:53.852Z,5.78
2018-04-28T15:33:22.537Z,8.27
2018-04-28T15:35:50.303Z,4.62
2018-04-28T15:38:18.056Z,4.78
2018-04-28T15:40:45.805Z,4.18
2018-04-28T15:43:13.631Z,3.03
2018-04-28T15:45:42.120Z,9.48
2018-04-28T15:48:09.926Z,7.75
2018-04-28T15:50:38.101Z,3.37
2018-04-28T15:53:05.834Z,4.72
2018-04-28T15:55:33.615Z,3.53
2018-04-28T15:58:01.485Z,9.57
2018-04-28T16:00:29.213Z,6.05
2018-04-28T16:02:57.004Z,3.90
2018-04-28T16:05:24.804Z,3.75
2018-04-28T16:07:53.336Z,3.75
2018-04-28T16:10:21.062Z,5.15
2018-04-28T16:12:48.845Z,4.15
2018-04-28T16:15:16.641Z,5.30
2018-04-28T16:17:44.501Z,5.95
2018-04-28T16:20:12.558Z,3.70
2018-04-28T16:22:40.315Z,4.15
2018-04-28T16:25:08.097Z,2.80
2018-04-28T16:27:35.867Z,3.65
2018-04-28T16:30:03.791Z,3.30
2018-04-28T16:32:31.710Z,4.35
2018-04-28T16:34:59.652Z,4.30
2018-04-28T16:37:27.520Z,4.55
2018-04-28T16:39:55.385Z,4.20
2018-04-28T16:42:23.245Z,5.85
2018-04-28T16:44:51.104Z,3.92
2018-04-28T16:47:18.969Z,4.05
2018-04-28T16:49:46.936Z,7.60
2018-04-28T16:52:14.804Z,6.62
2018-04-28T16:54:42.665Z,7.03
2018-04-28T16:57:10.531Z,3.65
2018-04-28T16:59:38.352Z,10.52
2018-04-28T17:02:06.973Z,6.20
2018-04-28T17:04:35.351Z,4.65
2018-04-28T17:07:03.215Z,6.47
2018-04-28T17:09:31.079Z,6.03
2018-04-28T17:11:58.943Z,6.50
2018-04-28T17:14:26.671Z,7.40
2018-04-28T17:16:54.446Z,6.40
2018-04-28T17:19:22.332Z,4.47
2018-04-28T17:21:50.195Z,7.62
2018-04-28T17:24:18.058Z,6.90
2018-04-28T17:26:45.860Z,9.60
2018-04-28T17:29:14.615Z,6.50
2018-04-28T17:31:42.341Z,5.28
2018-04-28T17:34:10.232Z,7.37
2018-04-28T17:36:38.813Z,3.97
2018-04-28T17:39:06.677Z,5.50
2018-04-28T17:41:34.443Z,3.85
2018-04-28T17:44:02.184Z,4.85
2018-04-28T17:46:29.917Z,5.87
2018-04-28T17:48:57.699Z,6.97
2018-04-28T17:51:26.184Z,6.47
2018-04-28T17:53:53.896Z,5.95
2018-04-28T17:56:21.680Z,5.75
2018-04-28T17:58:49.487Z,6.70
2018-04-28T18:01:17.360Z,6.57
2018-04-28T18:03:45.834Z,12.65
2018-04-28T18:06:13.696Z,6.47
2018-04-28T18:08:41.558Z,8.68
2018-04-28T18:11:09.395Z,10.02
2018-04-28T18:13:38.080Z,6.78
2018-04-28T18:16:06.691Z,6.35
2018-04-28T18:18:34.558Z,11.10
2018-04-28T18:21:02.316Z,9.93
2018-04-28T18:23:30.179Z,11.02
2018-04-28T18:25:58.964Z,8.50
2018-04-28T18:28:26.701Z,9.13
2018-04-28T18:30:54.599Z,11.45
2018-04-28T18:33:23.181Z,12.25
2018-04-28T18:35:51.036Z,7.82
2018-04-28T18:38:19.002Z,7.03
2018-04-28T18:40:47.115Z,6.03
2018-04-28T18:43:15.038Z,6.72
2018-04-28T18:45:42.791Z,10.25
2018-04-28T18:48:10.872Z,6.20
2018-04-28T18:50:39.577Z,7.90
2018-04-28T18:53:07.317Z,5.85
2018-04-28T18:55:35.392Z,8.10
2018-04-28T18:58:04.584Z,7.20
2018-04-28T19:00:33.776Z,11.98
2018-04-28T19:03:02.154Z,7.03
2018-04-28T19:05:30.122Z,8.50
2018-04-28T19:07:58.007Z,8.77
2018-04-28T19:10:25.935Z,8.20
2018-04-28T19:12:53.730Z,8.18
2018-04-28T19:15:21.579Z,9.73
2018-04-28T19:17:49.395Z,10.02
2018-04-28T19:20:17.204Z,9.90
2018-04-28T19:22:45.060Z,6.75
2018-04-28T19:25:12.925Z,10.98
2018-04-28T19:27:40.789Z,9.02
2018-04-28T19:30:08.552Z,11.93
2018-04-28T19:32:37.140Z,9.48
2018-04-28T19:35:04.996Z,7.82
2018-04-28T19:37:32.830Z,11.45
2018-04-28T19:40:00.725Z,13.70
2018-04-28T19:42:29.784Z,9.85
2018-04-28T19:44:58.506Z,10.88
2018-04-28T19:47:26.371Z,10.20
2018-04-28T19:49:55.216Z,10.20
2018-04-28T19:52:23.016Z,8.48
2018-04-28T19:54:50.883Z,15.38
2018-04-28T19:57:18.698Z,10.13
2018-04-28T19:59:48.155Z,11.38
2018-04-28T20:02:16.008Z,10.18
2018-04-28T20:04:43.872Z,7.85
2018-04-28T20:07:11.735Z,9.43
2018-04-28T20:09:39.524Z,8.95
2018-04-28T20:12:07.260Z,7.68
2018-04-28T20:14:34.987Z,8.20
2018-04-28T20:17:02.849Z,14.05
2018-04-28T20:19:30.585Z,9.48
2018-04-28T20:22:10.135Z,8.57
2018-04-28T20:38:08.229Z,8.55
2018-04-28T20:40:35.999Z,8.80
2018-04-28T20:43:03.855Z,10.50
2018-04-28T20:45:31.720Z,11.40
2018-04-28T20:47:59.588Z,10.27
2018-04-28T20:50:27.449Z,14.50
2018-04-28T20:52:57.056Z,10.15
2018-04-28T20:55:24.917Z,15.43
2018-04-28T20:57:52.781Z,10.57
2018-04-28T21:00:20.647Z,13.60
2018-04-28T21:02:48.407Z,14.93
2018-04-28T21:05:16.271Z,11.77
2018-04-28T21:07:44.143Z,13.10
2018-04-28T21:10:11.998Z,16.35
2018-04-28T21:12:39.864Z,11.45
2018-04-28T21:15:07.731Z,14.13
2018-04-28T21:17:35.594Z,21.17
2018-04-28T21:20:03.527Z,20.08
2018-04-28T21:22:31.425Z,18.20
2018-04-28T21:24:59.306Z,17.20
2018-04-28T21:27:27.871Z,25.23
2018-04-28T21:29:55.732Z,14.50
2018-04-28T21:32:23.596Z,16.12
2018-04-28T21:34:51.336Z,17.00
2018-04-28T21:37:19.110Z,16.05
2018-04-28T21:39:46.826Z,17.60
2018-04-28T21:42:14.541Z,15.02
2018-04-28T21:44:42.308Z,16.70
2018-04-28T21:47:10.032Z,16.45
2018-04-28T21:49:37.751Z,16.50
2018-04-28T21:52:05.690Z,17.00
2018-04-28T21:54:33.554Z,17.40
2018-04-28T21:57:01.379Z,20.33
2018-04-28T21:59:29.156Z,15.98
2018-04-28T22:01:57.051Z,19.42
2018-04-28T22:04:24.916Z,15.95
2018-04-28T22:06:52.778Z,20.15
2018-04-28T22:09:20.535Z,20.00
2018-04-28T22:11:48.303Z,22.45
2018-04-28T22:14:16.164Z,17.10
2018-04-28T22:16:43.988Z,15.75
2018-04-28T22:19:11.786Z,18.25
2018-04-28T22:21:39.649Z,16.45
2018-04-28T22:24:07.516Z,22.50
2018-04-28T22:26:35.379Z,21.35
2018-04-28T22:29:03.245Z,21.42
2018-04-28T22:31:31.108Z,22.25
2018-04-28T22:33:58.870Z,18.30
2018-04-28T22:36:26.647Z,19.30
2018-04-28T22:38:54.496Z,20.45
2018-04-28T22:41:22.363Z,16.27
2018-04-28T22:43:50.433Z,18.12
2018-04-28T22:46:18.293Z,21.75
2018-04-28T22:48:46.157Z,17.25
2018-04-28T22:51:13.984Z,17.25
2018-04-28T22:53:41.785Z,18.27
2018-04-28T22:56:09.507Z,20.12
2018-04-28T22:58:37.272Z,16.27
2018-04-28T23:01:04.987Z,19.45
2018-04-28T23:03:32.718Z,21.40
2018-04-28T23:06:00.498Z,17.92
2018-04-28T23:08:28.357Z,19.48
2018-04-28T23:10:56.220Z,16.25
2018-04-28T23:13:24.087Z,21.00
2018-04-28T23:15:51.812Z,16.70
2018-04-28T23:18:19.605Z,15.20
2018-04-28T23:20:47.471Z,15.90
2018-04-28T23:23:15.335Z,17.70
2018-04-28T23:25:43.198Z,14.90
2018-04-28T23:28:11.890Z,16.25
2018-04-28T23:30:39.707Z,17.92
2018-04-28T23:33:07.508Z,17.20
2018-04-28T23:35:35.476Z,18.92
2018-04-28T23:38:03.346Z,22.83
2018-04-28T23:40:31.201Z,20.58
2018-04-28T23:42:59.067Z,17.25
2018-04-28T23:45:26.893Z,18.65
2018-04-28T23:47:54.696Z,22.20
2018-04-28T23:50:22.555Z,19.83
2018-04-28T23:52:50.382Z,19.08
2018-04-28T23:55:18.181Z,17.52
2018-04-28T23:57:46.047Z,16.52
